createdAt,value
2022-11-25T00:00:30.912Z,2.00
2022-11-25T00:02:58.607Z,2.63
2022-11-25T00:05:26.404Z,2.50
2022-11-25T00:07:56.163Z,2.17
2022-11-25T00:10:28.644Z,2.13
2022-11-25T00:12:56.103Z,1.87
2022-11-25T00:15:24.181Z,2.53
2022-11-25T00:20:47.573Z,2.40
2022-11-25T00:23:17.186Z,3.30
2022-11-25T00:25:44.724Z,3.33
2022-11-25T00:28:12.973Z,2.67
2022-11-25T00:30:40.412Z,3.10
2022-11-25T00:33:07.902Z,2.73
2022-11-25T00:35:35.801Z,2.07
2022-11-25T00:38:04.912Z,2.77
2022-11-25T00:45:43.298Z,1.77
2022-11-25T00:48:11.121Z,2.30
2022-11-25T00:50:39.924Z,1.70
2022-11-25T00:53:07.303Z,3.73
2022-11-25T00:55:55.453Z,2.03
2022-11-25T00:58:22.913Z,1.87
2022-11-25T01:00:51.985Z,2.27
2022-11-25T01:06:12.385Z,2.00
2022-11-25T01:08:40.677Z,2.30
2022-11-25T01:11:11.413Z,2.50
2022-11-25T01:13:38.872Z,2.67
2022-11-25T01:16:08.194Z,2.23
2022-11-25T01:18:36.122Z,2.50
2022-11-25T01:21:07.654Z,2.30
2022-11-25T01:29:14.191Z,3.33
2022-11-25T01:31:42.578Z,3.70
2022-11-25T01:34:14.643Z,2.87
2022-11-25T01:36:43.172Z,3.10
2022-11-25T01:39:17.450Z,2.07
2022-11-25T01:41:46.684Z,2.40
2022-11-25T01:44:17.171Z,2.33
2022-11-25T01:49:38.446Z,2.73
2022-11-25T01:52:15.442Z,2.53
2022-11-25T01:54:52.345Z,2.93
2022-11-25T01:57:25.577Z,2.43
2022-11-25T01:59:57.136Z,2.73
2022-11-25T02:02:25.130Z,3.30
2022-11-25T02:04:53.537Z,3.07
2022-11-25T02:15:02.955Z,3.37
2022-11-25T02:17:31.226Z,2.90
2022-11-25T02:20:04.275Z,3.13
2022-11-25T02:22:43.066Z,2.60
2022-11-25T02:25:15.692Z,4.00
2022-11-25T02:27:46.542Z,3.83
2022-11-25T02:30:14.455Z,3.47
2022-11-25T02:32:45.432Z,2.93
2022-11-25T02:38:48.855Z,3.77
2022-11-25T02:41:19.924Z,5.07
2022-11-25T02:43:48.286Z,3.23
2022-11-25T02:46:22.531Z,3.43
2022-11-25T02:51:40.303Z,4.30
2022-11-25T02:54:08.824Z,3.83
2022-11-25T02:56:37.049Z,5.27
2022-11-25T03:04:09.067Z,4.53
2022-11-25T03:06:36.377Z,4.23
2022-11-25T03:09:04.026Z,3.17
2022-11-25T03:11:49.244Z,4.07
2022-11-25T03:14:16.636Z,3.40
2022-11-25T03:16:44.310Z,4.30
2022-11-25T03:19:13.335Z,3.77
2022-11-25T03:21:41.175Z,3.60
2022-11-25T03:29:13.034Z,4.30
2022-11-25T03:31:41.450Z,4.23
2022-11-25T03:34:08.874Z,3.00
2022-11-25T03:36:36.288Z,3.17
2022-11-25T03:39:04.039Z,3.20
2022-11-25T03:41:31.808Z,3.43
2022-11-25T03:43:59.396Z,2.97
2022-11-25T03:46:30.897Z,3.77
2022-11-25T03:54:04.537Z,3.57
2022-11-25T03:56:31.926Z,4.17
2022-11-25T03:58:59.355Z,3.87
2022-11-25T04:01:26.963Z,3.77
2022-11-25T04:03:55.086Z,3.87
2022-11-25T04:06:23.686Z,4.20
2022-11-25T04:08:51.264Z,4.97
2022-11-25T04:16:26.937Z,5.63
2022-11-25T04:18:54.291Z,4.57
2022-11-25T04:21:21.877Z,6.60
2022-11-25T04:23:49.237Z,5.10
2022-11-25T04:26:17.167Z,4.50
2022-11-25T04:28:44.617Z,5.13
2022-11-25T04:31:12.016Z,5.40
2022-11-25T04:33:40.417Z,5.47
2022-11-25T04:41:15.935Z,6.73
2022-11-25T04:43:43.375Z,5.00
2022-11-25T04:46:15.316Z,5.47
2022-11-25T04:48:42.808Z,6.23
2022-11-25T04:51:10.166Z,6.37
2022-11-25T04:53:37.844Z,7.83
2022-11-25T04:56:06.395Z,6.70
2022-11-25T05:04:27.664Z,7.17
2022-11-25T05:06:55.363Z,7.03
2022-11-25T05:09:23.321Z,8.07
2022-11-25T05:11:50.838Z,8.07
2022-11-25T05:14:18.547Z,7.70
2022-11-25T05:16:48.980Z,7.17
2022-11-25T05:19:17.405Z,6.93
2022-11-25T05:27:06.517Z,6.53
2022-11-25T05:29:34.164Z,6.13
2022-11-25T05:32:01.905Z,5.67
2022-11-25T05:34:29.908Z,5.17
2022-11-25T05:36:57.681Z,4.97
2022-11-25T05:39:25.887Z,5.93
2022-11-25T05:41:54.018Z,3.87
2022-11-25T05:44:23.577Z,4.10
2022-11-25T05:51:55.550Z,3.57
2022-11-25T05:54:23.195Z,3.33
2022-11-25T05:56:50.885Z,4.70
2022-11-25T05:59:18.857Z,3.53
2022-11-25T06:01:46.217Z,3.57
2022-11-25T06:04:13.585Z,3.97
2022-11-25T06:06:41.229Z,3.90
2022-11-25T06:09:09.616Z,3.20
2022-11-25T06:16:44.028Z,3.03
2022-11-25T06:19:11.666Z,2.87
2022-11-25T06:21:39.018Z,3.03
2022-11-25T06:24:06.939Z,3.73
2022-11-25T06:26:34.557Z,3.67
2022-11-25T06:29:01.944Z,3.53
2022-11-25T06:31:29.483Z,2.63
2022-11-25T06:39:18.310Z,3.00
2022-11-25T06:41:46.975Z,3.93
2022-11-25T06:44:14.736Z,3.40
2022-11-25T06:46:42.212Z,4.37
2022-11-25T06:49:10.325Z,3.83
2022-11-25T06:51:38.226Z,5.03
2022-11-25T06:54:06.678Z,4.87
2022-11-25T06:56:35.878Z,3.07
2022-11-25T07:04:08.407Z,3.50
2022-11-25T07:06:35.919Z,3.50
2022-11-25T07:09:03.821Z,3.27
2022-11-25T07:11:32.787Z,5.17
2022-11-25T07:14:01.615Z,3.57
2022-11-25T07:16:29.958Z,4.63
2022-11-25T07:18:59.087Z,4.50
2022-11-25T07:27:33.831Z,2.90
2022-11-25T07:30:41.606Z,2.73
2022-11-25T07:32:49.076Z,3.27
2022-11-25T07:35:21.071Z,3.90
2022-11-25T07:37:48.809Z,3.07
2022-11-25T07:40:17.140Z,4.40
2022-11-25T07:42:45.925Z,3.73
2022-11-25T07:45:13.477Z,3.00
2022-11-25T07:52:46.509Z,2.33
2022-11-25T07:55:14.122Z,2.93
2022-11-25T07:57:44.672Z,2.00
2022-11-25T08:00:13.944Z,1.50
2022-11-25T08:02:41.929Z,1.60
2022-11-25T08:05:10.576Z,1.90
2022-11-25T08:07:38.246Z,2.27
2022-11-25T08:17:02.906Z,1.30
2022-11-25T08:35:48.626Z,1.97
2022-11-25T09:34:19.496Z,2.30
2022-11-25T09:36:48.779Z,3.40
2022-11-25T09:39:16.385Z,2.20
2022-11-25T09:42:23.022Z,2.13
2022-11-25T09:45:22.748Z,2.03
2022-11-25T09:48:01.587Z,2.20
2022-11-25T09:50:48.677Z,2.50
2022-11-25T10:11:26.218Z,2.47
2022-11-25T10:13:58.835Z,2.40
2022-11-25T10:16:34.980Z,2.30
2022-11-25T10:19:06.449Z,2.57
2022-11-25T10:21:33.845Z,2.83
2022-11-25T10:24:03.977Z,2.57
2022-11-25T10:26:39.377Z,2.73
2022-11-25T10:34:24.194Z,3.57
2022-11-25T10:36:53.697Z,3.43
2022-11-25T10:39:24.192Z,3.07
2022-11-25T10:41:56.629Z,4.03
2022-11-25T10:44:27.855Z,3.30
2022-11-25T10:47:14.542Z,3.73
2022-11-25T10:49:54.958Z,3.30
2022-11-25T11:08:43.066Z,4.67
2022-11-25T11:11:21.395Z,4.20
2022-11-25T11:13:50.985Z,3.17
2022-11-25T11:16:28.389Z,3.87
2022-11-25T11:18:58.147Z,3.27
2022-11-25T11:21:32.096Z,3.93
2022-11-25T11:24:25.027Z,3.37
2022-11-25T11:32:51.696Z,2.90
2022-11-25T11:36:20.101Z,3.73
2022-11-25T11:39:34.878Z,3.27
2022-11-25T11:42:09.247Z,3.43
2022-11-25T11:45:05.853Z,3.93
2022-11-25T11:47:58.125Z,2.73
2022-11-25T11:51:05.478Z,2.50
2022-11-25T11:54:10.666Z,2.10
2022-11-25T11:57:15.980Z,2.83
2022-11-25T12:02:36.547Z,1.57
2022-11-25T12:05:14.047Z,2.80
2022-11-25T12:07:51.415Z,1.80
2022-11-25T12:10:25.055Z,2.00
2022-11-25T12:12:58.228Z,2.97
2022-11-25T12:15:37.036Z,2.50
2022-11-25T12:18:19.508Z,1.87
2022-11-25T12:20:55.577Z,1.73
2022-11-25T12:28:39.160Z,2.27
2022-11-25T12:31:13.356Z,1.97
2022-11-25T12:33:50.105Z,1.70
2022-11-25T12:36:23.157Z,2.17
2022-11-25T12:38:55.738Z,2.20
2022-11-25T12:41:30.686Z,2.00
2022-11-25T12:44:09.526Z,2.33
2022-11-25T14:32:45.526Z,1.90
2022-11-25T15:25:57.311Z,2.00
2022-11-25T15:28:24.677Z,2.20
2022-11-25T15:31:00.325Z,1.67
2022-11-25T15:33:30.167Z,2.20
2022-11-25T15:35:57.909Z,1.50
2022-11-25T15:38:38.418Z,1.77
2022-11-25T15:41:15.482Z,2.30
2022-11-25T15:59:24.713Z,1.50
2022-11-25T16:01:52.226Z,2.87
2022-11-25T16:04:21.817Z,2.67
2022-11-25T16:06:55.357Z,1.77
2022-11-25T16:09:28.326Z,2.23
2022-11-25T16:12:06.398Z,1.73
2022-11-25T16:14:37.382Z,2.30
2022-11-25T16:20:21.016Z,1.83
2022-11-25T16:22:51.825Z,1.50
2022-11-25T16:25:19.337Z,2.00
2022-11-25T16:27:48.500Z,1.80
2022-11-25T16:30:21.032Z,1.93
2022-11-25T16:32:59.417Z,2.07
2022-11-25T16:35:28.498Z,1.53
2022-11-25T16:40:39.510Z,1.93
2022-11-25T16:43:19.388Z,2.17
2022-11-25T16:45:52.074Z,3.67
2022-11-25T16:48:23.709Z,1.77
2022-11-25T16:50:52.762Z,3.30
2022-11-25T16:53:24.658Z,1.97
2022-11-25T16:55:54.105Z,1.70
2022-11-25T17:03:30.222Z,1.80
2022-11-25T17:05:59.528Z,1.57
2022-11-25T17:08:26.931Z,2.40
2022-11-25T17:10:58.595Z,2.00
2022-11-25T17:13:30.887Z,2.03
2022-11-25T17:15:59.762Z,2.07
2022-11-25T17:18:28.932Z,2.50
2022-11-25T17:26:01.401Z,2.80
2022-11-25T17:28:29.840Z,2.00
2022-11-25T17:30:57.422Z,2.27
2022-11-25T17:33:24.962Z,2.57
2022-11-25T17:35:53.740Z,2.50
2022-11-25T17:38:21.818Z,2.43
2022-11-25T17:40:50.162Z,3.00
2022-11-25T17:48:24.659Z,2.30
2022-11-25T17:50:52.163Z,2.00
2022-11-25T17:53:19.725Z,2.80
2022-11-25T17:55:47.302Z,2.13
2022-11-25T17:58:15.703Z,2.10
2022-11-25T18:00:44.890Z,4.07
2022-11-25T18:03:13.510Z,3.03
2022-11-25T18:08:58.739Z,2.63
2022-11-25T18:15:29.563Z,3.00
2022-11-25T18:18:16.022Z,2.20
2022-11-25T18:20:52.880Z,2.30
2022-11-25T18:23:33.770Z,2.60
2022-11-25T18:26:07.841Z,1.97
2022-11-25T18:47:24.961Z,3.30
2022-11-25T18:49:56.171Z,2.10
2022-11-25T18:52:24.291Z,3.93
2022-11-25T18:54:51.629Z,3.00
2022-11-25T18:57:19.159Z,2.40
2022-11-25T18:59:52.722Z,2.30
2022-11-25T19:02:30.130Z,2.77
2022-11-25T19:10:03.064Z,4.27
2022-11-25T19:12:31.280Z,3.50
2022-11-25T19:14:58.876Z,3.90
2022-11-25T19:17:26.591Z,3.87
2022-11-25T19:19:53.982Z,3.27
2022-11-25T19:22:22.170Z,4.57
2022-11-25T19:24:50.108Z,3.57
2022-11-25T19:27:23.115Z,5.33
2022-11-25T19:36:53.821Z,3.97
2022-11-25T19:39:21.363Z,4.50
2022-11-25T19:41:51.332Z,3.73
2022-11-25T19:44:23.921Z,3.60
2022-11-25T19:49:58.789Z,3.90
2022-11-25T19:52:35.219Z,3.93
2022-11-25T20:00:53.314Z,4.07
2022-11-25T20:03:24.041Z,3.60
2022-11-25T20:05:53.959Z,4.90
2022-11-25T20:08:23.858Z,4.97
2022-11-25T20:10:51.519Z,4.73
2022-11-25T20:13:19.070Z,5.07
2022-11-25T20:15:48.962Z,5.90
2022-11-25T20:23:28.579Z,4.87
2022-11-25T20:26:00.780Z,5.13
2022-11-25T20:28:31.167Z,3.43
2022-11-25T20:30:59.870Z,3.80
2022-11-25T20:33:31.040Z,4.20
2022-11-25T20:36:04.823Z,4.03
2022-11-25T20:38:36.022Z,3.90
2022-11-25T20:54:23.709Z,6.63
2022-11-25T20:56:59.492Z,6.43
2022-11-25T20:59:28.392Z,4.37
2022-11-25T21:01:58.746Z,4.43
2022-11-25T21:04:28.469Z,4.03
2022-11-25T21:06:57.852Z,5.10
2022-11-25T21:09:34.502Z,4.10
2022-11-25T21:12:02.789Z,4.80
2022-11-25T21:17:16.232Z,3.97
2022-11-25T21:19:44.561Z,5.40
2022-11-25T21:22:17.071Z,4.40
2022-11-25T21:24:47.035Z,4.37
2022-11-25T21:27:24.535Z,4.90
2022-11-25T21:29:55.130Z,4.60
2022-11-25T21:32:25.526Z,4.60
2022-11-25T21:40:06.041Z,4.07
2022-11-25T21:42:33.828Z,4.20
2022-11-25T21:45:01.102Z,3.90
2022-11-25T21:47:31.239Z,4.23
2022-11-25T21:49:59.421Z,3.50
2022-11-25T21:52:27.291Z,4.17
2022-11-25T21:54:54.981Z,4.43
2022-11-25T22:12:32.033Z,3.97
2022-11-25T22:15:05.231Z,3.70
2022-11-25T22:17:33.421Z,4.57
2022-11-25T22:20:01.144Z,4.90
2022-11-25T22:22:34.410Z,5.53
2022-11-25T22:25:01.904Z,6.00
2022-11-25T22:27:36.547Z,5.47
2022-11-25T22:32:44.830Z,5.10
2022-11-25T22:35:18.509Z,5.27
2022-11-25T22:37:50.590Z,5.70
2022-11-25T22:40:21.622Z,7.53
2022-11-25T22:42:51.167Z,5.80
2022-11-25T22:45:25.316Z,5.60
2022-11-25T22:47:55.123Z,4.40
2022-11-25T22:50:25.008Z,4.00
2022-11-25T23:08:23.960Z,4.63
2022-11-25T23:10:52.576Z,5.27
2022-11-25T23:13:20.655Z,3.93
2022-11-25T23:15:50.233Z,4.83
2022-11-25T23:18:26.297Z,5.40
2022-11-25T23:20:53.809Z,5.40
2022-11-25T23:23:24.021Z,5.53
2022-11-25T23:33:23.152Z,5.97
2022-11-25T23:36:08.838Z,6.07
2022-11-25T23:38:44.176Z,7.33
2022-11-25T23:41:15.368Z,6.13
2022-11-25T23:43:44.003Z,7.43
2022-11-25T23:46:14.814Z,5.67
2022-11-25T23:48:46.918Z,6.73
2022-11-25T23:54:40.957Z,7.63
2022-11-25T23:57:30.042Z,8.00
